Chappaquiddick Island, Massachusetts
Current Conditions -  °F | °C
As of 2:53 AM on Saturday 29 Nov 2014 (Local Time) from KMVY Reporting Station
Clear Clear  
Wind Chill: 17°   Ceiling: Unl
Heat Index: 24°   Visibility: 10mi
Dew Point: 16°   Wind: 6mph
Humidity: 71%   Direction: 330°NNW
Pressure: 30.24"   Gusts: NA
Location:  41.3788°N, 70.5416°W
Report Text: KMVY 290753Z AUTO 33005KT 10SM CLR M04/M09 A3024 RMK AO2 SLP243 T10441089
Loading
Personal Weather Stations






























Interactive Weather Map New forecast layout! Learn more

10-Day Weather Forecast

Advertisements
Track Severe Weather on mobile